Terminal Aerodrome Forecast
Issued by NWS

Home | Current Version | Previous Version | Text Only | Print | Product List | Glossary On
Versions: 1 2 3 4 5 6 7 8 9 10 11 12 13
815
FTUS42 TJSJ 282339
TAFNCM
TAF
TNCM 282339Z 2900/2924 08015KT P6SM VCSH SCT018 BKN050 BKN090
      TEMPO 2900/2904 VRB20G32KT 3SM TSRA BKN018CB OVC050
     FM290500 09022G32KT P6SM VCTS SCT018CB BKN050 BKN090
     FM291500 11020G32KT P6SM VCSH SCT018 BKN040 BKN100=

USA.gov is the U.S. government's official web portal to all federal, state and local government web resources and services.